createdAt,value
2018-08-19T00:00:55.521Z,62.15
2018-08-19T00:01:55.547Z,62.05
2018-08-19T00:02:55.572Z,61.96
2018-08-19T00:03:55.594Z,62.15
2018-08-19T00:04:55.620Z,62.05
2018-08-19T00:05:55.642Z,62.25
2018-08-19T00:06:55.667Z,62.25
2018-08-19T00:07:55.692Z,62.05
2018-08-19T00:08:55.717Z,62.08
2018-08-19T00:09:55.740Z,62.34
2018-08-19T00:10:55.772Z,62.44
2018-08-19T00:11:55.791Z,62.44
2018-08-19T00:12:55.816Z,62.34
2018-08-19T00:13:55.840Z,62.54
2018-08-19T00:14:55.862Z,62.44
2018-08-19T00:15:55.887Z,62.54
2018-08-19T00:16:55.912Z,62.44
2018-08-19T00:17:55.937Z,62.44
2018-08-19T00:18:55.960Z,62.37
2018-08-19T00:19:55.985Z,62.34
2018-08-19T00:20:56.009Z,62.34
2018-08-19T00:21:56.034Z,62.37
2018-08-19T00:22:56.059Z,62.34
2018-08-19T00:23:56.083Z,62.25
2018-08-19T00:24:56.106Z,62.25
2018-08-19T00:25:56.128Z,62.25
2018-08-19T00:26:56.156Z,62.25
2018-08-19T00:27:56.181Z,62.44
2018-08-19T00:28:56.205Z,62.34
2018-08-19T00:29:56.234Z,62.34
2018-08-19T00:30:56.255Z,62.63
2018-08-19T00:31:56.277Z,62.25
2018-08-19T00:32:56.305Z,62.25
2018-08-19T00:33:56.327Z,62.44
2018-08-19T00:34:56.349Z,62.44
2018-08-19T00:35:56.379Z,62.15
2018-08-19T00:36:56.398Z,62.44
2018-08-19T00:37:56.422Z,62.25
2018-08-19T00:38:56.447Z,62.73
2018-08-19T00:39:56.473Z,62.44
2018-08-19T00:40:56.497Z,62.73
2018-08-19T00:41:56.521Z,62.25
2018-08-19T00:42:56.549Z,62.54
2018-08-19T00:43:56.570Z,62.34
2018-08-19T00:44:56.595Z,62.15
2018-08-19T00:45:56.620Z,62.15
2018-08-19T00:46:56.643Z,62.63
2018-08-19T00:47:56.667Z,62.34
2018-08-19T00:48:56.692Z,62.54
2018-08-19T00:49:56.716Z,62.44
2018-08-19T00:50:56.742Z,62.54
2018-08-19T00:51:56.770Z,62.54
2018-08-19T00:52:56.790Z,62.54
2018-08-19T00:53:56.812Z,62.25
2018-08-19T00:54:56.836Z,62.34
2018-08-19T00:55:56.862Z,62.34
2018-08-19T00:56:56.886Z,62.34
2018-08-19T00:57:56.913Z,62.25
2018-08-19T00:58:56.937Z,62.44
2018-08-19T00:59:56.959Z,62.25
2018-08-19T01:00:56.985Z,62.15
2018-08-19T01:01:57.009Z,62.25
2018-08-19T01:02:57.033Z,62.25
2018-08-19T01:03:57.059Z,62.54
2018-08-19T01:04:57.085Z,62.73
2018-08-19T01:05:57.107Z,62.44
2018-08-19T01:06:57.130Z,62.25
2018-08-19T01:07:57.156Z,62.25
2018-08-19T01:08:57.181Z,62.15
2018-08-19T01:09:57.203Z,62.44
2018-08-19T01:10:57.227Z,62.73
2018-08-19T01:11:57.251Z,62.92
2018-08-19T01:12:57.276Z,62.92
2018-08-19T01:13:57.299Z,62.73
2018-08-19T01:14:57.325Z,62.73
2018-08-19T01:15:57.348Z,62.82
2018-08-19T01:16:57.373Z,62.82
2018-08-19T01:17:57.397Z,62.82
2018-08-19T01:18:57.421Z,62.73
2018-08-19T01:19:57.446Z,62.82
2018-08-19T01:20:57.472Z,62.92
2018-08-19T01:21:57.497Z,62.82
2018-08-19T01:22:57.518Z,62.82
2018-08-19T01:23:57.544Z,62.54
2018-08-19T01:24:57.568Z,62.73
2018-08-19T01:25:57.591Z,62.73
2018-08-19T01:26:57.617Z,62.73
2018-08-19T01:27:57.640Z,62.73
2018-08-19T01:28:57.663Z,62.54
2018-08-19T01:29:57.688Z,62.63
2018-08-19T01:30:57.715Z,62.73
2018-08-19T01:31:57.738Z,62.82
2018-08-19T01:32:57.763Z,63.21
2018-08-19T01:33:57.789Z,63.21
2018-08-19T01:34:57.810Z,62.82
2018-08-19T01:35:57.837Z,63.21
2018-08-19T01:36:57.861Z,62.92
2018-08-19T01:37:57.882Z,63.12
2018-08-19T01:38:57.907Z,63.02
2018-08-19T01:39:57.931Z,63.12
2018-08-19T01:40:57.958Z,63.21
2018-08-19T01:41:57.980Z,63.12
2018-08-19T01:42:58.004Z,63.02
2018-08-19T01:43:58.032Z,63.60
2018-08-19T01:44:58.054Z,62.92
2018-08-19T01:45:58.078Z,63.02
2018-08-19T01:46:58.102Z,63.21
2018-08-19T01:47:58.126Z,63.02
2018-08-19T01:48:58.151Z,62.92
2018-08-19T01:49:58.174Z,63.21
2018-08-19T01:50:58.203Z,63.31
2018-08-19T01:51:58.224Z,63.60
2018-08-19T01:52:58.251Z,63.31
2018-08-19T01:53:58.277Z,63.31
2018-08-19T01:54:58.295Z,63.50
2018-08-19T01:55:58.320Z,63.79
2018-08-19T01:56:58.345Z,63.60
2018-08-19T01:57:58.368Z,63.60
2018-08-19T01:58:58.394Z,63.60
2018-08-19T01:59:58.418Z,63.60
2018-08-19T02:00:58.442Z,63.50
2018-08-19T02:01:58.465Z,63.60
2018-08-19T02:02:58.492Z,63.60
2018-08-19T02:03:58.516Z,63.60
2018-08-19T02:04:58.539Z,63.50
2018-08-19T02:05:58.562Z,63.60
2018-08-19T02:06:58.588Z,63.50
2018-08-19T02:07:58.611Z,63.40
2018-08-19T02:08:58.636Z,63.50
2018-08-19T02:09:58.660Z,63.70
2018-08-19T02:10:58.683Z,63.60
2018-08-19T02:11:58.709Z,63.40
2018-08-19T02:12:58.739Z,63.40
2018-08-19T02:13:58.756Z,63.40
2018-08-19T02:14:58.782Z,63.40
2018-08-19T02:15:58.807Z,63.40
2018-08-19T02:16:58.828Z,63.21
2018-08-19T02:17:58.858Z,63.60
2018-08-19T02:18:58.882Z,63.79
2018-08-19T02:19:58.906Z,63.79
2018-08-19T02:20:58.928Z,63.70
2018-08-19T02:21:58.953Z,63.40
2018-08-19T02:22:58.978Z,63.70
2018-08-19T02:23:59.000Z,63.79
2018-08-19T02:24:59.027Z,63.50
2018-08-19T02:25:59.048Z,63.60
2018-08-19T02:26:59.073Z,63.79
2018-08-19T02:27:59.097Z,64.28
2018-08-19T02:28:59.122Z,64.08
2018-08-19T02:29:59.146Z,64.18
2018-08-19T02:30:59.172Z,63.70
2018-08-19T02:31:59.194Z,64.18
2018-08-19T02:32:59.219Z,63.70
2018-08-19T02:33:59.243Z,63.89
2018-08-19T02:34:59.265Z,63.70
2018-08-19T02:35:59.293Z,64.28
2018-08-19T02:36:59.316Z,63.79
2018-08-19T02:37:59.339Z,64.28
2018-08-19T02:38:59.363Z,64.37
2018-08-19T02:39:59.391Z,64.28
2018-08-19T02:40:59.413Z,64.28
2018-08-19T02:41:59.437Z,64.37
2018-08-19T02:42:59.461Z,63.98
2018-08-19T02:43:59.485Z,64.37
2018-08-19T02:44:59.509Z,64.08
2018-08-19T02:45:59.535Z,63.98
2018-08-19T02:46:59.559Z,64.18
2018-08-19T02:47:59.583Z,64.18
2018-08-19T02:48:59.606Z,64.08
2018-08-19T02:49:59.630Z,63.98
2018-08-19T02:50:59.662Z,64.28
2018-08-19T02:51:59.678Z,63.98
2018-08-19T02:52:59.706Z,64.08
2018-08-19T02:53:59.726Z,64.37
2018-08-19T02:54:59.752Z,64.08
2018-08-19T02:55:59.778Z,64.18
2018-08-19T02:56:59.802Z,64.08
2018-08-19T02:57:59.834Z,64.28
2018-08-19T02:58:59.849Z,64.18
2018-08-19T02:59:59.875Z,64.47
2018-08-19T03:00:59.897Z,64.18
2018-08-19T03:01:59.921Z,64.56
2018-08-19T03:02:59.945Z,64.47
2018-08-19T03:03:59.979Z,64.28
2018-08-19T03:04:59.994Z,64.37
2018-08-19T03:06:00.030Z,64.56
2018-08-19T03:07:00.042Z,64.28
2018-08-19T03:08:00.070Z,64.18
2018-08-19T03:09:00.094Z,64.47
2018-08-19T03:10:00.116Z,64.56
2018-08-19T03:11:00.141Z,64.37
2018-08-19T03:12:00.164Z,64.18
2018-08-19T03:13:00.188Z,64.47
2018-08-19T03:14:00.212Z,64.28
2018-08-19T03:15:00.289Z,64.37
2018-08-19T03:16:00.262Z,64.08
2018-08-19T03:17:00.285Z,64.37
2018-08-19T03:18:00.309Z,64.28
2018-08-19T03:19:00.334Z,64.18
2018-08-19T03:20:00.357Z,64.47
2018-08-19T03:21:00.385Z,64.28
2018-08-19T03:22:00.406Z,64.56
2018-08-19T03:23:00.433Z,64.56
2018-08-19T03:24:00.455Z,64.37
2018-08-19T03:25:00.479Z,64.28
2018-08-19T03:26:00.512Z,64.28
2018-08-19T03:27:00.530Z,64.28
2018-08-19T03:28:00.554Z,64.08
2018-08-19T03:29:00.578Z,64.08
2018-08-19T03:30:00.603Z,64.37
2018-08-19T03:31:00.627Z,63.98
2018-08-19T03:32:00.650Z,64.76
2018-08-19T03:33:00.673Z,64.76
2018-08-19T03:34:00.707Z,64.47
2018-08-19T03:35:00.720Z,64.47
2018-08-19T03:36:00.747Z,63.98
2018-08-19T03:37:00.771Z,64.56
2018-08-19T03:38:00.865Z,64.56
2018-08-19T03:39:00.817Z,64.56
2018-08-19T03:40:00.848Z,64.28
2018-08-19T03:41:00.866Z,64.18
2018-08-19T03:42:00.890Z,64.37
2018-08-19T03:43:00.914Z,64.56
2018-08-19T03:44:00.939Z,64.76
2018-08-19T03:45:00.966Z,64.56
2018-08-19T03:46:00.989Z,64.66
2018-08-19T03:47:01.013Z,64.76
2018-08-19T03:48:01.035Z,64.76
2018-08-19T03:49:01.060Z,63.98
2018-08-19T03:50:01.084Z,64.28
2018-08-19T03:51:01.108Z,64.47
2018-08-19T03:52:01.133Z,64.37
2018-08-19T03:53:01.157Z,64.86
2018-08-19T03:54:01.183Z,64.08
2018-08-19T03:55:01.206Z,64.47
2018-08-19T03:56:01.230Z,63.98
2018-08-19T03:57:01.254Z,64.47
2018-08-19T03:58:01.281Z,64.56
2018-08-19T03:59:01.303Z,64.56
2018-08-19T04:00:01.327Z,64.66
2018-08-19T04:01:01.351Z,64.66
2018-08-19T04:02:01.375Z,64.18
2018-08-19T04:03:01.400Z,64.56
2018-08-19T04:04:01.428Z,64.76
2018-08-19T04:05:01.448Z,64.76
2018-08-19T04:06:01.472Z,64.66
2018-08-19T04:07:01.500Z,64.47
2018-08-19T04:08:01.519Z,64.56
2018-08-19T04:09:01.545Z,63.98
2018-08-19T04:10:01.570Z,64.56
2018-08-19T04:11:01.594Z,64.47
2018-08-19T04:12:01.616Z,64.37
2018-08-19T04:13:01.643Z,64.47
2018-08-19T04:14:01.666Z,64.47
2018-08-19T04:15:01.689Z,64.47
2018-08-19T04:16:01.713Z,64.47
2018-08-19T04:17:01.741Z,65.14
2018-08-19T04:18:01.762Z,64.56
2018-08-19T04:19:01.786Z,64.47
2018-08-19T04:20:01.811Z,64.66
2018-08-19T04:21:01.835Z,64.47
2018-08-19T04:22:01.858Z,64.47
2018-08-19T04:23:01.886Z,64.37
2018-08-19T04:24:01.908Z,64.66
2018-08-19T04:25:01.936Z,64.56
2018-08-19T04:26:01.959Z,64.37
2018-08-19T04:27:01.984Z,64.47
2018-08-19T04:28:02.012Z,64.47
2018-08-19T04:29:02.029Z,64.56
2018-08-19T04:30:02.052Z,64.76
2018-08-19T04:31:02.080Z,64.47
2018-08-19T04:32:02.101Z,64.56
2018-08-19T04:33:02.126Z,64.56
2018-08-19T04:34:02.152Z,64.47
2018-08-19T04:35:02.174Z,64.47
2018-08-19T04:36:02.199Z,64.47
2018-08-19T04:37:02.222Z,64.56
2018-08-19T04:38:02.249Z,64.47
2018-08-19T04:39:02.321Z,64.47
2018-08-19T04:40:02.296Z,64.47
2018-08-19T04:41:02.321Z,64.66
2018-08-19T04:42:02.343Z,64.47
2018-08-19T04:43:02.368Z,64.56
2018-08-19T04:44:02.393Z,64.47
2018-08-19T04:45:02.418Z,64.47
2018-08-19T04:46:02.440Z,64.56
2018-08-19T04:47:02.464Z,64.76
2018-08-19T04:48:02.491Z,64.66
2018-08-19T04:49:02.513Z,64.76
2018-08-19T04:50:02.538Z,64.56
2018-08-19T04:51:02.566Z,64.47
2018-08-19T04:52:02.587Z,64.56
2018-08-19T04:53:02.611Z,64.47
2018-08-19T04:54:02.635Z,64.56
2018-08-19T04:55:02.658Z,64.56
2018-08-19T04:56:02.688Z,64.76
2018-08-19T04:57:02.709Z,64.76
2018-08-19T04:58:02.732Z,64.86
2018-08-19T04:59:02.755Z,64.66
2018-08-19T05:00:02.779Z,64.86
2018-08-19T05:01:02.809Z,64.66
2018-08-19T05:02:02.875Z,64.18
2018-08-19T05:03:02.853Z,63.98
2018-08-19T05:04:02.878Z,64.56
2018-08-19T05:05:02.903Z,63.98
2018-08-19T05:06:02.925Z,64.76
2018-08-19T05:07:02.953Z,64.76
2018-08-19T05:08:03.085Z,64.66
2018-08-19T05:09:02.998Z,63.98
2018-08-19T05:10:03.022Z,64.66
2018-08-19T05:11:03.050Z,64.18
2018-08-19T05:12:03.070Z,64.76
2018-08-19T05:13:03.105Z,64.56
2018-08-19T05:14:03.120Z,64.76
2018-08-19T05:15:03.143Z,64.76
2018-08-19T05:16:03.168Z,64.56
2018-08-19T05:17:03.196Z,64.76
2018-08-19T05:18:03.218Z,64.66
2018-08-19T05:19:03.241Z,64.76
2018-08-19T05:20:03.267Z,64.56
2018-08-19T05:21:03.293Z,64.66
2018-08-19T05:22:03.315Z,63.98
2018-08-19T05:23:03.337Z,64.18
2018-08-19T05:24:03.364Z,64.66
2018-08-19T05:25:03.392Z,64.28
2018-08-19T05:26:03.408Z,64.08
2018-08-19T05:27:03.435Z,64.37
2018-08-19T05:28:03.460Z,64.28
2018-08-19T05:29:03.483Z,64.37
2018-08-19T05:30:03.507Z,64.37
2018-08-19T05:31:03.533Z,64.37
2018-08-19T05:32:03.557Z,64.28
2018-08-19T05:33:03.580Z,64.47
2018-08-19T05:34:03.605Z,64.66
2018-08-19T05:35:03.632Z,64.66
2018-08-19T05:36:03.653Z,64.28
2018-08-19T05:37:03.678Z,63.98
2018-08-19T05:38:03.762Z,64.47
2018-08-19T05:39:03.727Z,64.47
2018-08-19T05:40:03.751Z,64.11
2018-08-19T05:41:03.774Z,64.50
2018-08-19T05:42:03.802Z,64.56
2018-08-19T05:43:03.822Z,64.31
2018-08-19T05:44:03.848Z,64.21
2018-08-19T05:45:03.872Z,64.18
2018-08-19T05:46:03.897Z,64.01
2018-08-19T05:47:03.930Z,64.11
2018-08-19T05:48:03.944Z,64.11
2018-08-19T05:49:03.971Z,64.21
2018-08-19T05:50:03.993Z,64.31
2018-08-19T05:51:04.017Z,64.28
2018-08-19T05:52:04.043Z,64.21
2018-08-19T05:53:04.069Z,64.40
2018-08-19T05:54:04.130Z,63.92
2018-08-19T05:55:04.117Z,64.40
2018-08-19T05:56:04.143Z,63.73
2018-08-19T05:57:04.164Z,63.92
2018-08-19T05:58:04.188Z,64.31
2018-08-19T05:59:04.214Z,64.11
2018-08-19T06:00:04.236Z,64.21
2018-08-19T06:01:04.314Z,64.21
2018-08-19T06:02:04.290Z,63.73
2018-08-19T06:03:04.311Z,63.82
2018-08-19T06:04:04.387Z,63.73
2018-08-19T06:05:04.358Z,63.73
2018-08-19T06:06:04.381Z,63.63
2018-08-19T06:07:04.406Z,63.34
2018-08-19T06:08:04.431Z,63.34
2018-08-19T06:09:04.457Z,63.43
2018-08-19T06:10:04.481Z,63.53
2018-08-19T06:11:04.505Z,63.34
2018-08-19T06:12:04.527Z,63.34
2018-08-19T06:13:04.555Z,63.34
2018-08-19T06:14:04.579Z,63.24
2018-08-19T06:15:04.603Z,63.34
2018-08-19T06:16:04.628Z,63.34
2018-08-19T06:17:04.658Z,63.53
2018-08-19T06:18:04.673Z,63.34
2018-08-19T06:19:04.699Z,63.43
2018-08-19T06:20:04.728Z,63.53
2018-08-19T06:21:04.753Z,63.43
2018-08-19T06:22:04.813Z,63.53
2018-08-19T06:23:04.798Z,63.53
2018-08-19T06:24:04.823Z,63.34
2018-08-19T06:25:04.845Z,63.73
2018-08-19T06:26:04.871Z,63.82
2018-08-19T06:27:04.892Z,63.63
2018-08-19T06:28:04.924Z,63.73
2018-08-19T06:29:04.946Z,63.73
2018-08-19T06:30:04.970Z,63.73
2018-08-19T06:31:05.057Z,63.73
2018-08-19T06:32:05.020Z,63.63
2018-08-19T06:33:05.041Z,63.53
2018-08-19T06:34:05.067Z,63.53
2018-08-19T06:35:05.223Z,63.63
2018-08-19T06:36:05.118Z,63.63
2018-08-19T06:37:05.152Z,63.63
2018-08-19T06:38:05.163Z,63.63
2018-08-19T06:39:05.188Z,63.53
2018-08-19T06:40:05.218Z,63.34
2018-08-19T06:41:05.244Z,63.34
2018-08-19T06:42:05.262Z,63.63
2018-08-19T06:43:05.335Z,63.53
2018-08-19T06:44:05.310Z,63.24
2018-08-19T06:45:05.334Z,63.24
2018-08-19T06:46:05.361Z,63.53
2018-08-19T06:47:05.385Z,63.24
2018-08-19T06:48:05.408Z,63.43
2018-08-19T06:49:05.433Z,63.28
2018-08-19T06:50:05.456Z,63.24
2018-08-19T06:51:05.499Z,63.24
2018-08-19T06:52:05.516Z,63.43
2018-08-19T06:53:05.530Z,63.73
2018-08-19T06:54:05.554Z,63.24
2018-08-19T06:55:05.582Z,63.37
2018-08-19T06:56:05.604Z,63.56
2018-08-19T06:57:05.641Z,63.18
2018-08-19T06:58:05.654Z,63.15
2018-08-19T06:59:05.677Z,63.37
2018-08-19T07:00:05.702Z,63.08
2018-08-19T07:01:05.726Z,63.28
2018-08-19T07:02:05.753Z,62.89
2018-08-19T07:03:05.777Z,62.79
2018-08-19T07:04:05.835Z,62.79
2018-08-19T07:05:05.825Z,62.79
2018-08-19T07:06:05.849Z,62.89
2018-08-19T07:07:05.876Z,62.98
2018-08-19T07:08:05.899Z,62.89
2018-08-19T07:09:05.926Z,62.21
2018-08-19T07:10:05.948Z,62.31
2018-08-19T07:11:05.973Z,62.40
2018-08-19T07:12:05.999Z,62.50
2018-08-19T07:13:06.021Z,62.50
2018-08-19T07:14:06.046Z,62.70
2018-08-19T07:15:06.071Z,62.21
2018-08-19T07:16:06.094Z,62.50
2018-08-19T07:17:06.121Z,62.79
2018-08-19T07:18:06.145Z,62.40
2018-08-19T07:19:06.169Z,62.50
2018-08-19T07:20:06.194Z,62.44
2018-08-19T07:21:06.221Z,62.40
2018-08-19T07:22:06.243Z,62.53
2018-08-19T07:23:06.270Z,62.24
2018-08-19T07:24:06.293Z,62.12
2018-08-19T07:25:06.319Z,62.15
2018-08-19T07:26:06.345Z,62.15
2018-08-19T07:27:06.369Z,61.95
2018-08-19T07:28:06.393Z,62.24
2018-08-19T07:29:06.420Z,62.15
2018-08-19T07:30:06.441Z,61.86
2018-08-19T07:31:06.469Z,61.66
2018-08-19T07:32:06.491Z,61.86
2018-08-19T07:33:06.518Z,61.47
2018-08-19T07:34:06.541Z,61.27
2018-08-19T07:35:06.566Z,61.27
2018-08-19T07:36:06.590Z,61.30
2018-08-19T07:37:06.639Z,61.37
2018-08-19T07:38:06.638Z,61.47
2018-08-19T07:39:06.665Z,61.11
2018-08-19T07:40:06.697Z,61.11
2018-08-19T07:41:06.715Z,61.37
2018-08-19T07:42:06.739Z,61.27
2018-08-19T07:43:06.771Z,61.30
2018-08-19T07:44:06.795Z,61.18
2018-08-19T07:45:06.816Z,61.02
2018-08-19T07:46:06.842Z,60.82
2018-08-19T07:47:06.865Z,61.08
2018-08-19T07:48:06.889Z,60.72
2018-08-19T07:49:06.914Z,60.92
2018-08-19T07:50:06.939Z,60.82
2018-08-19T07:51:06.964Z,60.82
2018-08-19T07:52:06.993Z,60.92
2018-08-19T07:53:07.017Z,60.53
2018-08-19T07:54:07.040Z,60.34
2018-08-19T07:55:07.063Z,60.92
2018-08-19T07:56:07.090Z,60.92
2018-08-19T07:57:07.117Z,60.82
2018-08-19T07:58:07.140Z,60.72
2018-08-19T07:59:07.164Z,60.72
2018-08-19T08:00:07.190Z,60.72
2018-08-19T08:01:07.217Z,60.34
2018-08-19T08:02:07.239Z,60.72
2018-08-19T08:03:07.277Z,60.24
2018-08-19T08:04:07.289Z,60.24
2018-08-19T08:05:07.316Z,60.14
2018-08-19T08:06:07.338Z,60.34
2018-08-19T08:07:07.383Z,60.34
2018-08-19T08:08:07.392Z,60.24
2018-08-19T08:09:07.438Z,60.24
2018-08-19T08:10:07.442Z,60.24
2018-08-19T08:11:07.466Z,60.44
2018-08-19T08:12:07.491Z,60.24
2018-08-19T08:13:07.515Z,60.24
2018-08-19T08:14:07.543Z,60.05
2018-08-19T08:15:07.571Z,60.24
2018-08-19T08:16:07.593Z,60.14
2018-08-19T08:17:07.618Z,60.44
2018-08-19T08:18:07.641Z,60.24
2018-08-19T08:19:07.666Z,60.34
2018-08-19T08:20:07.694Z,60.53
2018-08-19T08:21:07.736Z,60.53
2018-08-19T08:22:07.743Z,60.34
2018-08-19T08:23:07.768Z,60.24
2018-08-19T08:24:07.796Z,60.34
2018-08-19T08:25:07.820Z,60.44
2018-08-19T08:26:07.843Z,60.44
2018-08-19T08:27:07.869Z,60.24
2018-08-19T08:28:07.895Z,60.24
2018-08-19T08:29:08.000Z,60.34
2018-08-19T08:30:07.942Z,60.24
2018-08-19T08:31:07.970Z,60.34
2018-08-19T08:32:07.996Z,60.44
2018-08-19T08:33:08.021Z,59.86
2018-08-19T08:34:08.048Z,59.86
2018-08-19T08:35:08.071Z,60.24
2018-08-19T08:36:08.096Z,59.76
2018-08-19T08:37:08.125Z,60.14
2018-08-19T08:38:08.149Z,59.69
2018-08-19T08:39:08.174Z,59.79
2018-08-19T08:40:08.199Z,59.89
2018-08-19T08:41:08.224Z,59.79
2018-08-19T08:42:08.249Z,59.89
2018-08-19T08:43:08.306Z,59.79
2018-08-19T08:44:08.300Z,59.79
2018-08-19T08:45:08.324Z,59.89
2018-08-19T08:46:08.349Z,59.66
2018-08-19T08:47:08.373Z,59.98
2018-08-19T08:48:08.402Z,59.79
2018-08-19T08:49:08.425Z,59.89
2018-08-19T08:50:08.450Z,59.98
2018-08-19T08:51:08.475Z,59.98
2018-08-19T08:52:08.505Z,59.89
2018-08-19T08:53:08.547Z,59.79
2018-08-19T08:54:08.552Z,59.98
2018-08-19T08:55:08.578Z,59.89
2018-08-19T08:56:08.604Z,59.79
2018-08-19T08:57:08.628Z,59.69
2018-08-19T08:58:08.654Z,59.79
2018-08-19T08:59:08.681Z,59.98
2018-08-19T09:00:08.704Z,59.50
2018-08-19T09:01:08.730Z,59.50
2018-08-19T09:02:08.761Z,59.31
2018-08-19T09:03:08.800Z,58.82
2018-08-19T09:04:08.806Z,59.11
2018-08-19T09:05:08.832Z,59.40
2018-08-19T09:06:08.854Z,59.31
2018-08-19T09:07:08.881Z,58.95
2018-08-19T09:08:08.909Z,59.05
2018-08-19T09:09:08.937Z,58.95
2018-08-19T09:10:08.956Z,58.63
2018-08-19T09:11:08.984Z,58.56
2018-08-19T09:12:09.009Z,58.47
2018-08-19T09:13:09.036Z,58.75
2018-08-19T09:14:09.060Z,58.17
2018-08-19T09:15:09.085Z,58.27
2018-08-19T09:16:09.111Z,58.85
2018-08-19T09:17:09.138Z,58.27
2018-08-19T09:18:09.163Z,58.17
2018-08-19T09:19:09.223Z,58.07
2018-08-19T09:20:09.214Z,58.20
2018-08-19T09:21:09.240Z,57.81
2018-08-19T09:22:09.266Z,58.01
2018-08-19T09:23:09.386Z,57.71
2018-08-19T09:24:09.316Z,57.71
2018-08-19T09:25:09.343Z,58.01
2018-08-19T09:26:09.371Z,57.33
2018-08-19T09:27:09.393Z,57.33
2018-08-19T09:28:09.419Z,57.81
2018-08-19T09:29:09.445Z,57.71
2018-08-19T09:30:09.471Z,57.62
2018-08-19T09:31:09.498Z,57.53
2018-08-19T09:32:09.524Z,57.98
2018-08-19T09:33:09.549Z,58.17
2018-08-19T09:34:09.573Z,57.71
2018-08-19T09:35:09.599Z,57.81
2018-08-19T09:36:09.627Z,57.88
2018-08-19T09:37:09.650Z,57.53
2018-08-19T09:38:09.675Z,57.59
2018-08-19T09:39:09.702Z,58.11
2018-08-19T09:40:09.733Z,57.62
2018-08-19T09:41:09.754Z,57.53
2018-08-19T09:42:09.780Z,57.71
2018-08-19T09:43:09.804Z,57.53
2018-08-19T09:44:09.831Z,57.71
2018-08-19T09:45:09.860Z,57.43
2018-08-19T09:46:09.889Z,57.04
2018-08-19T09:47:09.909Z,57.23
2018-08-19T09:48:09.943Z,57.23
2018-08-19T09:49:09.964Z,57.23
2018-08-19T09:50:09.993Z,56.82
2018-08-19T09:51:10.011Z,56.46
2018-08-19T09:52:10.038Z,56.94
2018-08-19T09:53:10.064Z,57.04
2018-08-19T09:54:10.117Z,56.65
2018-08-19T09:55:10.116Z,56.46
2018-08-19T09:56:10.141Z,56.46
2018-08-19T09:57:10.166Z,56.36
2018-08-19T09:58:10.191Z,56.36
2018-08-19T09:59:10.217Z,56.85
2018-08-19T10:00:10.246Z,56.07
2018-08-19T10:01:10.268Z,55.78
2018-08-19T10:02:10.295Z,56.07
2018-08-19T10:03:10.323Z,56.36
2018-08-19T10:04:10.347Z,55.78
2018-08-19T10:05:10.376Z,56.16
2018-08-19T10:06:10.401Z,55.98
2018-08-19T10:07:10.424Z,55.78
2018-08-19T10:08:10.452Z,55.78
2018-08-19T10:09:10.476Z,55.68
2018-08-19T10:10:10.500Z,55.78
2018-08-19T10:11:10.528Z,55.78
2018-08-19T10:12:10.553Z,56.26
2018-08-19T10:13:10.579Z,55.78
2018-08-19T10:14:10.604Z,55.78
2018-08-19T10:15:10.630Z,56.07
2018-08-19T10:16:10.664Z,55.88
2018-08-19T10:17:10.683Z,55.78
2018-08-19T10:18:10.708Z,55.98
2018-08-19T10:19:10.735Z,56.07
2018-08-19T10:20:10.760Z,56.16
2018-08-19T10:21:10.794Z,55.88
2018-08-19T10:22:10.813Z,55.98
2018-08-19T10:23:10.842Z,55.58
2018-08-19T10:24:10.864Z,55.88
2018-08-19T10:25:10.889Z,55.88
2018-08-19T10:26:10.914Z,56.07
2018-08-19T10:27:10.940Z,55.49
2018-08-19T10:28:10.967Z,55.20
2018-08-19T10:29:10.993Z,55.68
2018-08-19T10:30:11.018Z,55.88
2018-08-19T10:31:11.053Z,55.88
2018-08-19T10:32:11.071Z,55.78
2018-08-19T10:33:11.098Z,55.49
2018-08-19T10:34:11.120Z,56.07
2018-08-19T10:35:11.147Z,55.40
2018-08-19T10:36:11.172Z,55.30
2018-08-19T10:37:11.199Z,55.20
2018-08-19T10:38:11.225Z,55.58
2018-08-19T10:39:11.262Z,55.49
2018-08-19T10:40:11.275Z,54.91
2018-08-19T10:41:11.305Z,55.00
2018-08-19T10:42:11.331Z,55.10
2018-08-19T10:43:11.356Z,55.00
2018-08-19T10:44:11.380Z,55.00
2018-08-19T10:45:11.405Z,55.20
2018-08-19T10:46:11.489Z,54.52
2018-08-19T10:47:11.458Z,55.00
2018-08-19T10:48:11.491Z,55.30
2018-08-19T10:49:11.517Z,55.20
2018-08-19T10:50:11.535Z,54.23
2018-08-19T10:51:11.561Z,54.62
2018-08-19T10:52:11.584Z,55.00
2018-08-19T10:53:11.616Z,54.91
2018-08-19T10:54:11.643Z,54.52
2018-08-19T10:55:11.664Z,54.52
2018-08-19T10:56:11.691Z,55.00
2018-08-19T10:57:11.716Z,54.52
2018-08-19T10:58:11.743Z,54.52
2018-08-19T10:59:11.768Z,54.43
2018-08-19T11:00:11.796Z,54.91
2018-08-19T11:01:11.820Z,54.91
2018-08-19T11:02:11.844Z,54.71
2018-08-19T11:03:11.871Z,54.43
2018-08-19T11:04:11.898Z,54.52
2018-08-19T11:05:11.921Z,55.20
2018-08-19T11:06:11.947Z,54.52
2018-08-19T11:07:11.974Z,54.52
2018-08-19T11:08:12.000Z,54.43
2018-08-19T11:09:12.026Z,55.00
2018-08-19T11:10:12.051Z,55.00
2018-08-19T11:11:12.075Z,54.52
2018-08-19T11:12:12.104Z,54.52
2018-08-19T11:13:12.133Z,54.62
2018-08-19T11:14:12.156Z,55.20
2018-08-19T11:15:12.183Z,54.23
2018-08-19T11:16:12.208Z,54.52
2018-08-19T11:17:12.232Z,54.43
2018-08-19T11:18:12.257Z,55.10
2018-08-19T11:19:12.284Z,54.33
2018-08-19T11:20:12.311Z,54.23
2018-08-19T11:21:12.340Z,54.23
2018-08-19T11:22:12.360Z,54.52
2018-08-19T11:23:12.386Z,54.71
2018-08-19T11:24:12.414Z,54.13
2018-08-19T11:25:12.442Z,54.52
2018-08-19T11:26:12.464Z,54.23
2018-08-19T11:27:12.490Z,54.81
2018-08-19T11:28:12.527Z,54.23
2018-08-19T11:29:12.544Z,54.43
2018-08-19T11:30:12.569Z,54.33
2018-08-19T11:31:12.595Z,55.10
2018-08-19T11:32:12.620Z,54.52
2018-08-19T11:33:12.646Z,54.52
2018-08-19T11:34:12.672Z,54.62
2018-08-19T11:35:12.697Z,54.62
2018-08-19T11:36:12.722Z,54.43
2018-08-19T11:37:12.752Z,54.52
2018-08-19T11:38:12.774Z,54.52
2018-08-19T11:39:12.804Z,54.62
2018-08-19T11:40:12.825Z,54.52
2018-08-19T11:41:12.853Z,54.33
2018-08-19T11:42:12.878Z,54.03
2018-08-19T11:43:12.957Z,54.33
2018-08-19T11:44:12.930Z,54.52
2018-08-19T11:45:12.960Z,54.62
2018-08-19T11:46:12.982Z,54.13
2018-08-19T11:47:13.008Z,54.33
2018-08-19T11:48:13.035Z,54.52
2018-08-19T11:49:13.067Z,54.43
2018-08-19T11:50:13.085Z,54.03
2018-08-19T11:51:13.112Z,54.52
2018-08-19T11:52:13.138Z,54.52
2018-08-19T11:53:13.164Z,54.52
2018-08-19T11:54:13.192Z,54.23
2018-08-19T11:55:13.227Z,54.03
2018-08-19T11:56:13.245Z,54.33
2018-08-19T11:57:13.266Z,54.71
2018-08-19T11:58:13.295Z,54.43
2018-08-19T11:59:13.319Z,54.23
2018-08-19T12:00:13.344Z,54.33
2018-08-19T12:01:13.369Z,54.62
2018-08-19T12:02:13.514Z,54.33
2018-08-19T12:03:13.422Z,54.13
2018-08-19T12:04:13.449Z,54.23
2018-08-19T12:05:13.474Z,54.71
2018-08-19T12:06:13.498Z,54.43
2018-08-19T12:07:13.528Z,54.23
2018-08-19T12:08:13.549Z,54.23
2018-08-19T12:09:13.576Z,54.13
2018-08-19T12:10:13.601Z,54.23
2018-08-19T12:11:13.628Z,54.23
2018-08-19T12:12:13.654Z,54.23
2018-08-19T12:13:13.688Z,54.52
2018-08-19T12:14:13.706Z,54.43
2018-08-19T12:15:13.776Z,54.03
2018-08-19T12:16:13.757Z,54.13
2018-08-19T12:17:13.784Z,54.52
2018-08-19T12:18:13.809Z,54.23
2018-08-19T12:19:13.834Z,54.03
2018-08-19T12:20:13.862Z,54.03
2018-08-19T12:21:13.886Z,54.23
2018-08-19T12:22:13.916Z,54.62
2018-08-19T12:23:13.937Z,54.23
2018-08-19T12:24:13.966Z,54.23
2018-08-19T12:25:13.991Z,54.03
2018-08-19T12:26:14.018Z,54.52
2018-08-19T12:27:14.095Z,54.03
2018-08-19T12:28:14.069Z,53.75
2018-08-19T12:29:14.092Z,54.13
2018-08-19T12:30:14.119Z,54.43
2018-08-19T12:31:14.145Z,54.03
2018-08-19T12:32:14.172Z,53.75
2018-08-19T12:33:14.196Z,53.81
2018-08-19T12:34:14.221Z,54.33
2018-08-19T12:35:14.250Z,54.52
2018-08-19T12:36:14.273Z,53.75
2018-08-19T12:37:14.429Z,53.85
2018-08-19T12:38:14.325Z,53.65
2018-08-19T12:39:14.350Z,54.33
2018-08-19T12:40:14.378Z,53.85
2018-08-19T12:41:14.404Z,53.75
2018-08-19T12:42:14.429Z,53.75
2018-08-19T12:43:14.453Z,54.13
2018-08-19T12:44:14.484Z,53.94
2018-08-19T12:45:14.513Z,53.65
2018-08-19T12:46:14.533Z,53.75
2018-08-19T12:47:14.557Z,54.13
2018-08-19T12:48:14.584Z,53.65
2018-08-19T12:49:14.610Z,52.87
2018-08-19T12:50:14.667Z,53.26
2018-08-19T12:51:14.663Z,53.65
2018-08-19T12:52:14.687Z,53.94
2018-08-19T12:53:14.713Z,53.45